sensor_id;sensor_type;location;lat;lon;timestamp;P1;durP1;ratioP1;P2;durP2;ratioP2
70838;SDS011;58464;52.298;4.852;2022-08-21T00:00:47;9.18;;;3.00;;
70838;SDS011;58464;52.298;4.852;2022-08-21T00:03:13;12.00;;;2.47;;
70838;SDS011;58464;52.298;4.852;2022-08-21T00:05:44;11.38;;;3.00;;
70838;SDS011;58464;52.298;4.852;2022-08-21T00:08:12;14.60;;;3.38;;
70838;SDS011;58464;52.298;4.852;2022-08-21T00:10:38;10.60;;;3.53;;
70838;SDS011;58464;52.298;4.852;2022-08-21T00:13:05;11.52;;;3.33;;
70838;SDS011;58464;52.298;4.852;2022-08-21T00:15:31;9.90;;;2.72;;
70838;SDS011;58464;52.298;4.852;2022-08-21T00:17:58;15.80;;;3.17;;
70838;SDS011;58464;52.298;4.852;2022-08-21T00:20:24;7.85;;;2.42;;
70838;SDS011;58464;52.298;4.852;2022-08-21T00:22:50;10.05;;;3.25;;
70838;SDS011;58464;52.298;4.852;2022-08-21T00:25:17;10.85;;;2.80;;
70838;SDS011;58464;52.298;4.852;2022-08-21T00:27:44;12.25;;;2.85;;
70838;SDS011;58464;52.298;4.852;2022-08-21T00:30:11;8.35;;;3.13;;
70838;SDS011;58464;52.298;4.852;2022-08-21T00:32:39;9.43;;;2.78;;
70838;SDS011;58464;52.298;4.852;2022-08-21T00:35:06;10.18;;;2.92;;
70838;SDS011;58464;52.298;4.852;2022-08-21T00:37:34;13.73;;;3.63;;
70838;SDS011;58464;52.298;4.852;2022-08-21T00:39:59;8.05;;;2.78;;
70838;SDS011;58464;52.298;4.852;2022-08-21T00:42:26;8.45;;;2.95;;
70838;SDS011;58464;52.298;4.852;2022-08-21T00:44:54;14.02;;;3.50;;
70838;SDS011;58464;52.298;4.852;2022-08-21T00:47:19;14.25;;;3.30;;
70838;SDS011;58464;52.298;4.852;2022-08-21T00:49:45;9.45;;;2.75;;
70838;SDS011;58464;52.298;4.852;2022-08-21T00:52:13;9.20;;;3.13;;
70838;SDS011;58464;52.298;4.852;2022-08-21T00:54:42;9.77;;;3.25;;
70838;SDS011;58464;52.298;4.852;2022-08-21T00:57:10;17.75;;;3.40;;
70838;SDS011;58464;52.298;4.852;2022-08-21T00:59:41;9.82;;;3.05;;
70838;SDS011;58464;52.298;4.852;2022-08-21T01:02:10;11.25;;;3.35;;
70838;SDS011;58464;52.298;4.852;2022-08-21T01:04:36;11.70;;;2.90;;
70838;SDS011;58464;52.298;4.852;2022-08-21T01:07:02;15.10;;;3.45;;
70838;SDS011;58464;52.298;4.852;2022-08-21T01:09:28;9.88;;;3.17;;
70838;SDS011;58464;52.298;4.852;2022-08-21T01:11:53;13.80;;;3.67;;
70838;SDS011;58464;52.298;4.852;2022-08-21T01:14:19;13.73;;;3.63;;
70838;SDS011;58464;52.298;4.852;2022-08-21T01:16:47;8.23;;;2.78;;
70838;SDS011;58464;52.298;4.852;2022-08-21T01:19:16;10.15;;;2.83;;
70838;SDS011;58464;52.298;4.852;2022-08-21T01:21:43;12.82;;;3.47;;
70838;SDS011;58464;52.298;4.852;2022-08-21T01:24:09;15.75;;;4.05;;
70838;SDS011;58464;52.298;4.852;2022-08-21T01:26:35;13.00;;;3.33;;
70838;SDS011;58464;52.298;4.852;2022-08-21T01:29:05;15.38;;;3.92;;
70838;SDS011;58464;52.298;4.852;2022-08-21T01:31:36;9.20;;;2.80;;
70838;SDS011;58464;52.298;4.852;2022-08-21T01:34:02;7.55;;;3.20;;
70838;SDS011;58464;52.298;4.852;2022-08-21T01:36:28;17.20;;;3.88;;
70838;SDS011;58464;52.298;4.852;2022-08-21T01:38:54;10.85;;;3.45;;
70838;SDS011;58464;52.298;4.852;2022-08-21T01:41:20;18.15;;;3.45;;
70838;SDS011;58464;52.298;4.852;2022-08-21T01:43:45;11.05;;;2.90;;
70838;SDS011;58464;52.298;4.852;2022-08-21T01:46:11;7.43;;;2.30;;
70838;SDS011;58464;52.298;4.852;2022-08-21T01:48:37;10.38;;;3.20;;
70838;SDS011;58464;52.298;4.852;2022-08-21T01:51:04;9.82;;;2.90;;
70838;SDS011;58464;52.298;4.852;2022-08-21T01:53:30;14.65;;;3.17;;
70838;SDS011;58464;52.298;4.852;2022-08-21T01:55:56;9.75;;;2.65;;
70838;SDS011;58464;52.298;4.852;2022-08-21T01:58:21;12.77;;;3.25;;
70838;SDS011;58464;52.298;4.852;2022-08-21T02:00:47;15.55;;;3.25;;
70838;SDS011;58464;52.298;4.852;2022-08-21T02:03:13;15.80;;;4.18;;
70838;SDS011;58464;52.298;4.852;2022-08-21T02:05:39;12.77;;;3.17;;
70838;SDS011;58464;52.298;4.852;2022-08-21T02:08:05;15.15;;;3.13;;
70838;SDS011;58464;52.298;4.852;2022-08-21T02:10:32;16.50;;;4.30;;
70838;SDS011;58464;52.298;4.852;2022-08-21T02:12:58;20.60;;;4.20;;
70838;SDS011;58464;52.298;4.852;2022-08-21T02:15:25;8.95;;;3.08;;
70838;SDS011;58464;52.298;4.852;2022-08-21T02:17:53;19.67;;;3.17;;
70838;SDS011;58464;52.298;4.852;2022-08-21T02:20:22;6.47;;;2.70;;
70838;SDS011;58464;52.298;4.852;2022-08-21T02:22:48;16.08;;;3.40;;
70838;SDS011;58464;52.298;4.852;2022-08-21T02:25:15;11.15;;;3.22;;
70838;SDS011;58464;52.298;4.852;2022-08-21T02:27:42;8.40;;;2.60;;
70838;SDS011;58464;52.298;4.852;2022-08-21T02:30:17;16.35;;;3.35;;
70838;SDS011;58464;52.298;4.852;2022-08-21T02:32:59;10.90;;;2.97;;
70838;SDS011;58464;52.298;4.852;2022-08-21T02:35:25;11.23;;;3.28;;
70838;SDS011;58464;52.298;4.852;2022-08-21T02:37:59;13.07;;;3.30;;
70838;SDS011;58464;52.298;4.852;2022-08-21T02:40:29;12.98;;;3.08;;
70838;SDS011;58464;52.298;4.852;2022-08-21T02:42:57;15.02;;;3.20;;
70838;SDS011;58464;52.298;4.852;2022-08-21T02:45:24;12.90;;;3.33;;
70838;SDS011;58464;52.298;4.852;2022-08-21T02:47:50;10.90;;;3.50;;
70838;SDS011;58464;52.298;4.852;2022-08-21T02:50:25;13.13;;;3.25;;
70838;SDS011;58464;52.298;4.852;2022-08-21T02:52:53;14.10;;;3.00;;
70838;SDS011;58464;52.298;4.852;2022-08-21T02:55:19;12.80;;;3.85;;
70838;SDS011;58464;52.298;4.852;2022-08-21T02:57:46;13.15;;;2.88;;
70838;SDS011;58464;52.298;4.852;2022-08-21T03:00:12;11.10;;;3.42;;
70838;SDS011;58464;52.298;4.852;2022-08-21T03:02:38;12.02;;;3.40;;
70838;SDS011;58464;52.298;4.852;2022-08-21T03:05:05;18.90;;;3.70;;
70838;SDS011;58464;52.298;4.852;2022-08-21T03:07:31;17.00;;;3.60;;
70838;SDS011;58464;52.298;4.852;2022-08-21T03:09:57;12.75;;;3.35;;
70838;SDS011;58464;52.298;4.852;2022-08-21T03:12:23;10.30;;;3.53;;
70838;SDS011;58464;52.298;4.852;2022-08-21T03:14:49;14.02;;;3.65;;
70838;SDS011;58464;52.298;4.852;2022-08-21T03:17:15;13.95;;;4.45;;
70838;SDS011;58464;52.298;4.852;2022-08-21T03:19:40;11.57;;;3.90;;
70838;SDS011;58464;52.298;4.852;2022-08-21T03:22:06;14.18;;;4.65;;
70838;SDS011;58464;52.298;4.852;2022-08-21T03:24:32;10.02;;;4.18;;
70838;SDS011;58464;52.298;4.852;2022-08-21T03:26:58;11.85;;;4.15;;
70838;SDS011;58464;52.298;4.852;2022-08-21T03:29:23;9.95;;;4.00;;
70838;SDS011;58464;52.298;4.852;2022-08-21T03:31:48;15.07;;;3.90;;
70838;SDS011;58464;52.298;4.852;2022-08-21T03:34:14;15.07;;;4.15;;
70838;SDS011;58464;52.298;4.852;2022-08-21T03:36:39;15.18;;;4.47;;
70838;SDS011;58464;52.298;4.852;2022-08-21T03:39:05;13.88;;;4.68;;
70838;SDS011;58464;52.298;4.852;2022-08-21T03:41:30;15.23;;;4.88;;
70838;SDS011;58464;52.298;4.852;2022-08-21T03:43:56;17.02;;;4.05;;
70838;SDS011;58464;52.298;4.852;2022-08-21T03:46:21;11.38;;;3.85;;
70838;SDS011;58464;52.298;4.852;2022-08-21T03:48:47;9.48;;;4.22;;
70838;SDS011;58464;52.298;4.852;2022-08-21T03:51:12;19.27;;;4.63;;
70838;SDS011;58464;52.298;4.852;2022-08-21T03:53:37;14.48;;;4.75;;
70838;SDS011;58464;52.298;4.852;2022-08-21T03:56:03;12.18;;;4.63;;
70838;SDS011;58464;52.298;4.852;2022-08-21T03:58:30;11.68;;;4.43;;
70838;SDS011;58464;52.298;4.852;2022-08-21T04:00:56;13.98;;;5.07;;
70838;SDS011;58464;52.298;4.852;2022-08-21T04:03:23;16.65;;;4.22;;
70838;SDS011;58464;52.298;4.852;2022-08-21T04:05:50;13.10;;;4.28;;
70838;SDS011;58464;52.298;4.852;2022-08-21T04:08:16;14.38;;;4.50;;
70838;SDS011;58464;52.298;4.852;2022-08-21T04:10:45;15.93;;;5.15;;
70838;SDS011;58464;52.298;4.852;2022-08-21T04:13:12;16.23;;;4.38;;
70838;SDS011;58464;52.298;4.852;2022-08-21T04:15:37;16.15;;;5.18;;
70838;SDS011;58464;52.298;4.852;2022-08-21T04:18:04;10.75;;;4.78;;
70838;SDS011;58464;52.298;4.852;2022-08-21T04:20:30;10.93;;;4.97;;
70838;SDS011;58464;52.298;4.852;2022-08-21T04:22:55;17.02;;;5.07;;
70838;SDS011;58464;52.298;4.852;2022-08-21T04:25:21;13.93;;;5.50;;
70838;SDS011;58464;52.298;4.852;2022-08-21T04:27:48;16.40;;;5.25;;
70838;SDS011;58464;52.298;4.852;2022-08-21T04:30:15;15.95;;;4.80;;
70838;SDS011;58464;52.298;4.852;2022-08-21T04:32:44;12.80;;;5.28;;
70838;SDS011;58464;52.298;4.852;2022-08-21T04:35:12;16.55;;;5.05;;
70838;SDS011;58464;52.298;4.852;2022-08-21T04:37:39;13.02;;;4.70;;
70838;SDS011;58464;52.298;4.852;2022-08-21T04:40:05;15.77;;;4.85;;
70838;SDS011;58464;52.298;4.852;2022-08-21T04:42:32;21.20;;;4.60;;
70838;SDS011;58464;52.298;4.852;2022-08-21T04:44:58;15.48;;;4.82;;
70838;SDS011;58464;52.298;4.852;2022-08-21T04:47:23;17.08;;;5.05;;
70838;SDS011;58464;52.298;4.852;2022-08-21T04:49:49;12.05;;;4.05;;
70838;SDS011;58464;52.298;4.852;2022-08-21T04:52:17;13.00;;;4.55;;
70838;SDS011;58464;52.298;4.852;2022-08-21T04:54:46;10.15;;;4.60;;
70838;SDS011;58464;52.298;4.852;2022-08-21T04:57:12;12.73;;;5.38;;
70838;SDS011;58464;52.298;4.852;2022-08-21T04:59:42;14.90;;;4.32;;
70838;SDS011;58464;52.298;4.852;2022-08-21T05:02:11;9.32;;;4.53;;
70838;SDS011;58464;52.298;4.852;2022-08-21T05:04:40;15.80;;;4.95;;
70838;SDS011;58464;52.298;4.852;2022-08-21T05:07:12;13.15;;;4.05;;
70838;SDS011;58464;52.298;4.852;2022-08-21T05:09:41;11.82;;;4.00;;
70838;SDS011;58464;52.298;4.852;2022-08-21T05:12:07;15.10;;;4.18;;
70838;SDS011;58464;52.298;4.852;2022-08-21T05:14:32;12.75;;;3.85;;
70838;SDS011;58464;52.298;4.852;2022-08-21T05:16:58;12.80;;;4.00;;
70838;SDS011;58464;52.298;4.852;2022-08-21T05:19:24;9.45;;;3.53;;
70838;SDS011;58464;52.298;4.852;2022-08-21T05:21:49;9.68;;;3.70;;
70838;SDS011;58464;52.298;4.852;2022-08-21T05:24:15;15.63;;;3.20;;
70838;SDS011;58464;52.298;4.852;2022-08-21T05:26:41;12.68;;;3.65;;
70838;SDS011;58464;52.298;4.852;2022-08-21T05:29:07;17.13;;;3.92;;
70838;SDS011;58464;52.298;4.852;2022-08-21T05:31:32;18.38;;;3.55;;
70838;SDS011;58464;52.298;4.852;2022-08-21T05:33:58;14.00;;;3.42;;
70838;SDS011;58464;52.298;4.852;2022-08-21T05:36:23;10.52;;;3.75;;
70838;SDS011;58464;52.298;4.852;2022-08-21T05:38:49;15.77;;;3.85;;
70838;SDS011;58464;52.298;4.852;2022-08-21T05:41:15;14.52;;;3.15;;
70838;SDS011;58464;52.298;4.852;2022-08-21T05:43:40;16.45;;;2.97;;
70838;SDS011;58464;52.298;4.852;2022-08-21T05:46:06;16.75;;;3.38;;
70838;SDS011;58464;52.298;4.852;2022-08-21T05:48:32;14.95;;;3.22;;
70838;SDS011;58464;52.298;4.852;2022-08-21T05:51:03;18.27;;;3.92;;
70838;SDS011;58464;52.298;4.852;2022-08-21T05:53:39;18.67;;;4.13;;
70838;SDS011;58464;52.298;4.852;2022-08-21T05:56:07;23.90;;;3.03;;
70838;SDS011;58464;52.298;4.852;2022-08-21T05:58:33;12.70;;;3.38;;
70838;SDS011;58464;52.298;4.852;2022-08-21T06:00:59;11.70;;;3.15;;
70838;SDS011;58464;52.298;4.852;2022-08-21T06:03:34;9.93;;;2.42;;
70838;SDS011;58464;52.298;4.852;2022-08-21T06:06:01;13.77;;;3.25;;
70838;SDS011;58464;52.298;4.852;2022-08-21T06:08:27;11.30;;;3.17;;
70838;SDS011;58464;52.298;4.852;2022-08-21T06:10:53;11.65;;;3.00;;
70838;SDS011;58464;52.298;4.852;2022-08-21T06:13:21;14.30;;;3.03;;
70838;SDS011;58464;52.298;4.852;2022-08-21T06:15:47;16.15;;;3.20;;
70838;SDS011;58464;52.298;4.852;2022-08-21T06:18:12;17.20;;;4.43;;
70838;SDS011;58464;52.298;4.852;2022-08-21T06:20:38;16.63;;;3.47;;
70838;SDS011;58464;52.298;4.852;2022-08-21T06:23:04;13.52;;;3.42;;
70838;SDS011;58464;52.298;4.852;2022-08-21T06:25:30;19.35;;;3.88;;
70838;SDS011;58464;52.298;4.852;2022-08-21T06:28:07;13.85;;;3.83;;
70838;SDS011;58464;52.298;4.852;2022-08-21T06:30:34;15.25;;;3.38;;
70838;SDS011;58464;52.298;4.852;2022-08-21T06:33:01;19.67;;;3.85;;
70838;SDS011;58464;52.298;4.852;2022-08-21T06:35:27;16.80;;;3.55;;
70838;SDS011;58464;52.298;4.852;2022-08-21T06:37:54;12.35;;;3.25;;
70838;SDS011;58464;52.298;4.852;2022-08-21T06:40:19;18.52;;;3.88;;
70838;SDS011;58464;52.298;4.852;2022-08-21T06:42:45;17.85;;;3.90;;
70838;SDS011;58464;52.298;4.852;2022-08-21T06:45:10;12.73;;;3.55;;
70838;SDS011;58464;52.298;4.852;2022-08-21T06:47:36;22.63;;;4.03;;
70838;SDS011;58464;52.298;4.852;2022-08-21T06:50:02;12.90;;;3.53;;
70838;SDS011;58464;52.298;4.852;2022-08-21T06:52:29;13.95;;;4.00;;
70838;SDS011;58464;52.298;4.852;2022-08-21T06:54:55;13.50;;;3.42;;
70838;SDS011;58464;52.298;4.852;2022-08-21T06:57:20;16.05;;;3.70;;
70838;SDS011;58464;52.298;4.852;2022-08-21T06:59:46;12.73;;;3.90;;
70838;SDS011;58464;52.298;4.852;2022-08-21T07:02:12;19.83;;;4.32;;
70838;SDS011;58464;52.298;4.852;2022-08-21T07:04:37;15.27;;;4.15;;
70838;SDS011;58464;52.298;4.852;2022-08-21T07:07:03;17.23;;;4.18;;
70838;SDS011;58464;52.298;4.852;2022-08-21T07:09:28;15.38;;;3.75;;
70838;SDS011;58464;52.298;4.852;2022-08-21T07:11:54;17.13;;;4.05;;
70838;SDS011;58464;52.298;4.852;2022-08-21T07:14:21;20.38;;;5.03;;
70838;SDS011;58464;52.298;4.852;2022-08-21T07:16:47;25.80;;;4.22;;
70838;SDS011;58464;52.298;4.852;2022-08-21T07:19:13;17.48;;;3.88;;
70838;SDS011;58464;52.298;4.852;2022-08-21T07:21:39;18.98;;;3.78;;
70838;SDS011;58464;52.298;4.852;2022-08-21T07:24:05;12.32;;;4.05;;
70838;SDS011;58464;52.298;4.852;2022-08-21T07:26:30;19.25;;;3.80;;
70838;SDS011;58464;52.298;4.852;2022-08-21T07:28:55;16.75;;;4.03;;
70838;SDS011;58464;52.298;4.852;2022-08-21T07:31:22;12.65;;;3.60;;
70838;SDS011;58464;52.298;4.852;2022-08-21T07:33:48;19.08;;;4.25;;
70838;SDS011;58464;52.298;4.852;2022-08-21T07:36:14;18.95;;;3.60;;
70838;SDS011;58464;52.298;4.852;2022-08-21T07:38:40;21.10;;;4.20;;
70838;SDS011;58464;52.298;4.852;2022-08-21T07:41:07;15.70;;;3.17;;
70838;SDS011;58464;52.298;4.852;2022-08-21T07:43:39;15.10;;;3.63;;
70838;SDS011;58464;52.298;4.852;2022-08-21T07:46:05;15.50;;;3.65;;
70838;SDS011;58464;52.298;4.852;2022-08-21T07:48:30;12.35;;;3.92;;
70838;SDS011;58464;52.298;4.852;2022-08-21T07:50:55;20.45;;;4.18;;
70838;SDS011;58464;52.298;4.852;2022-08-21T07:53:21;24.63;;;4.80;;
70838;SDS011;58464;52.298;4.852;2022-08-21T07:55:47;15.07;;;3.47;;
70838;SDS011;58464;52.298;4.852;2022-08-21T07:58:13;18.60;;;4.30;;
70838;SDS011;58464;52.298;4.852;2022-08-21T08:00:39;17.27;;;3.92;;
70838;SDS011;58464;52.298;4.852;2022-08-21T08:03:05;21.15;;;4.38;;
70838;SDS011;58464;52.298;4.852;2022-08-21T08:05:31;15.13;;;3.92;;
70838;SDS011;58464;52.298;4.852;2022-08-21T08:07:57;15.73;;;4.13;;
70838;SDS011;58464;52.298;4.852;2022-08-21T08:10:23;22.85;;;4.35;;
70838;SDS011;58464;52.298;4.852;2022-08-21T08:12:51;14.98;;;3.88;;
70838;SDS011;58464;52.298;4.852;2022-08-21T08:15:21;15.90;;;4.75;;
70838;SDS011;58464;52.298;4.852;2022-08-21T08:17:48;16.60;;;4.38;;
70838;SDS011;58464;52.298;4.852;2022-08-21T08:20:14;18.13;;;4.80;;
70838;SDS011;58464;52.298;4.852;2022-08-21T08:22:44;15.55;;;4.35;;
70838;SDS011;58464;52.298;4.852;2022-08-21T08:25:10;15.70;;;3.63;;
70838;SDS011;58464;52.298;4.852;2022-08-21T08:27:37;16.17;;;4.25;;
70838;SDS011;58464;52.298;4.852;2022-08-21T08:30:03;20.45;;;4.15;;
70838;SDS011;58464;52.298;4.852;2022-08-21T08:32:30;15.15;;;3.55;;
70838;SDS011;58464;52.298;4.852;2022-08-21T08:34:56;17.45;;;3.85;;
70838;SDS011;58464;52.298;4.852;2022-08-21T08:37:23;11.48;;;3.65;;
70838;SDS011;58464;52.298;4.852;2022-08-21T08:39:48;16.13;;;4.03;;
70838;SDS011;58464;52.298;4.852;2022-08-21T08:42:23;23.15;;;4.13;;
70838;SDS011;58464;52.298;4.852;2022-08-21T08:45:04;29.33;;;4.75;;
70838;SDS011;58464;52.298;4.852;2022-08-21T08:47:35;16.58;;;3.13;;
70838;SDS011;58464;52.298;4.852;2022-08-21T08:52:42;13.40;;;3.30;;
70838;SDS011;58464;52.298;4.852;2022-08-21T08:55:13;19.05;;;4.20;;
70838;SDS011;58464;52.298;4.852;2022-08-21T08:57:44;23.08;;;3.70;;
70838;SDS011;58464;52.298;4.852;2022-08-21T09:00:15;20.05;;;3.35;;
70838;SDS011;58464;52.298;4.852;2022-08-21T09:02:43;21.27;;;3.63;;
70838;SDS011;58464;52.298;4.852;2022-08-21T09:05:15;16.35;;;3.53;;
70838;SDS011;58464;52.298;4.852;2022-08-21T09:10:36;17.17;;;3.17;;
70838;SDS011;58464;52.298;4.852;2022-08-21T09:13:20;8.07;;;2.85;;
70838;SDS011;58464;52.298;4.852;2022-08-21T09:16:03;10.63;;;3.22;;
70838;SDS011;58464;52.298;4.852;2022-08-21T09:18:44;15.48;;;2.42;;
70838;SDS011;58464;52.298;4.852;2022-08-21T09:23:55;8.57;;;2.28;;
70838;SDS011;58464;52.298;4.852;2022-08-21T09:26:31;16.45;;;3.05;;
70838;SDS011;58464;52.298;4.852;2022-08-21T09:29:06;16.30;;;3.58;;
70838;SDS011;58464;52.298;4.852;2022-08-21T09:31:35;11.10;;;2.28;;
70838;SDS011;58464;52.298;4.852;2022-08-21T09:34:06;9.73;;;2.35;;
70838;SDS011;58464;52.298;4.852;2022-08-21T09:36:40;13.27;;;2.75;;
70838;SDS011;58464;52.298;4.852;2022-08-21T09:39:09;11.40;;;1.80;;
70838;SDS011;58464;52.298;4.852;2022-08-21T09:41:37;13.48;;;2.58;;
70838;SDS011;58464;52.298;4.852;2022-08-21T09:44:04;11.88;;;2.47;;
70838;SDS011;58464;52.298;4.852;2022-08-21T09:46:31;11.02;;;2.65;;
70838;SDS011;58464;52.298;4.852;2022-08-21T09:48:58;10.35;;;2.85;;
70838;SDS011;58464;52.298;4.852;2022-08-21T09:51:27;10.85;;;2.10;;
70838;SDS011;58464;52.298;4.852;2022-08-21T09:54:16;12.95;;;2.53;;
70838;SDS011;58464;52.298;4.852;2022-08-21T09:59:52;12.52;;;2.40;;
70838;SDS011;58464;52.298;4.852;2022-08-21T10:04:54;17.00;;;4.78;;
70838;SDS011;58464;52.298;4.852;2022-08-21T10:07:22;11.15;;;2.65;;
70838;SDS011;58464;52.298;4.852;2022-08-21T10:10:04;14.95;;;2.90;;
70838;SDS011;58464;52.298;4.852;2022-08-21T10:12:36;8.32;;;2.53;;
70838;SDS011;58464;52.298;4.852;2022-08-21T10:20:23;10.13;;;2.10;;
70838;SDS011;58464;52.298;4.852;2022-08-21T10:23:28;10.57;;;1.90;;
70838;SDS011;58464;52.298;4.852;2022-08-21T10:28:30;5.73;;;1.90;;
70838;SDS011;58464;52.298;4.852;2022-08-21T10:36:58;5.93;;;1.92;;
70838;SDS011;58464;52.298;4.852;2022-08-21T10:39:35;9.73;;;2.00;;
70838;SDS011;58464;52.298;4.852;2022-08-21T10:47:34;6.32;;;2.15;;
70838;SDS011;58464;52.298;4.852;2022-08-21T10:57:41;7.63;;;1.38;;
70838;SDS011;58464;52.298;4.852;2022-08-21T11:05:45;11.82;;;2.05;;
70838;SDS011;58464;52.298;4.852;2022-08-21T11:08:17;9.15;;;2.60;;
70838;SDS011;58464;52.298;4.852;2022-08-21T11:11:04;7.40;;;1.80;;
70838;SDS011;58464;52.298;4.852;2022-08-21T11:13:48;4.75;;;1.30;;
70838;SDS011;58464;52.298;4.852;2022-08-21T11:24:29;6.88;;;1.60;;
70838;SDS011;58464;52.298;4.852;2022-08-21T11:27:05;6.30;;;1.27;;
70838;SDS011;58464;52.298;4.852;2022-08-21T11:29:58;4.45;;;1.25;;
70838;SDS011;58464;52.298;4.852;2022-08-21T11:37:48;3.90;;;1.17;;
70838;SDS011;58464;52.298;4.852;2022-08-21T11:46:08;12.13;;;1.85;;
70838;SDS011;58464;52.298;4.852;2022-08-21T11:55:02;8.73;;;2.17;;
70838;SDS011;58464;52.298;4.852;2022-08-21T11:57:34;7.22;;;1.92;;
70838;SDS011;58464;52.298;4.852;2022-08-21T12:00:13;4.82;;;1.10;;
70838;SDS011;58464;52.298;4.852;2022-08-21T12:02:47;3.83;;;1.33;;
70838;SDS011;58464;52.298;4.852;2022-08-21T12:05:31;3.15;;;0.70;;
70838;SDS011;58464;52.298;4.852;2022-08-21T12:10:33;2.58;;;1.02;;
70838;SDS011;58464;52.298;4.852;2022-08-21T12:13:23;3.78;;;0.93;;
70838;SDS011;58464;52.298;4.852;2022-08-21T12:15:51;7.47;;;2.28;;
70838;SDS011;58464;52.298;4.852;2022-08-21T12:18:29;11.15;;;1.42;;
70838;SDS011;58464;52.298;4.852;2022-08-21T12:21:01;8.82;;;1.73;;
70838;SDS011;58464;52.298;4.852;2022-08-21T12:23:57;13.30;;;2.35;;
70838;SDS011;58464;52.298;4.852;2022-08-21T12:26:31;7.68;;;1.10;;
70838;SDS011;58464;52.298;4.852;2022-08-21T12:29:13;4.63;;;1.30;;
70838;SDS011;58464;52.298;4.852;2022-08-21T12:31:49;5.10;;;1.30;;
70838;SDS011;58464;52.298;4.852;2022-08-21T12:34:20;6.53;;;1.88;;
70838;SDS011;58464;52.298;4.852;2022-08-21T12:36:56;4.55;;;1.55;;
70838;SDS011;58464;52.298;4.852;2022-08-21T12:39:25;9.88;;;1.73;;
70838;SDS011;58464;52.298;4.852;2022-08-21T12:42:00;7.65;;;1.73;;
70838;SDS011;58464;52.298;4.852;2022-08-21T12:44:55;3.25;;;1.00;;
70838;SDS011;58464;52.298;4.852;2022-08-21T12:49:59;5.68;;;1.60;;
70838;SDS011;58464;52.298;4.852;2022-08-21T12:52:31;16.45;;;2.50;;
70838;SDS011;58464;52.298;4.852;2022-08-21T12:54:59;6.75;;;1.73;;
70838;SDS011;58464;52.298;4.852;2022-08-21T12:57:26;6.53;;;1.38;;
70838;SDS011;58464;52.298;4.852;2022-08-21T12:59:57;6.30;;;1.48;;
70838;SDS011;58464;52.298;4.852;2022-08-21T13:02:31;9.02;;;2.17;;
70838;SDS011;58464;52.298;4.852;2022-08-21T13:05:02;7.80;;;2.20;;
70838;SDS011;58464;52.298;4.852;2022-08-21T13:07:30;10.18;;;2.45;;
70838;SDS011;58464;52.298;4.852;2022-08-21T13:10:00;5.75;;;1.10;;
70838;SDS011;58464;52.298;4.852;2022-08-21T13:12:31;6.95;;;2.25;;
70838;SDS011;58464;52.298;4.852;2022-08-21T13:15:02;7.18;;;1.77;;
70838;SDS011;58464;52.298;4.852;2022-08-21T13:17:31;13.07;;;1.73;;
70838;SDS011;58464;52.298;4.852;2022-08-21T13:20:03;4.20;;;1.30;;
70838;SDS011;58464;52.298;4.852;2022-08-21T13:22:50;7.53;;;1.70;;
70838;SDS011;58464;52.298;4.852;2022-08-21T13:25:16;9.75;;;2.15;;
70838;SDS011;58464;52.298;4.852;2022-08-21T13:27:45;9.73;;;2.05;;
70838;SDS011;58464;52.298;4.852;2022-08-21T13:30:25;8.50;;;1.80;;
70838;SDS011;58464;52.298;4.852;2022-08-21T13:32:52;5.65;;;1.25;;
70838;SDS011;58464;52.298;4.852;2022-08-21T13:36:11;9.02;;;1.45;;
70838;SDS011;58464;52.298;4.852;2022-08-21T13:38:27;11.48;;;2.00;;
70838;SDS011;58464;52.298;4.852;2022-08-21T13:40:56;9.38;;;2.20;;
70838;SDS011;58464;52.298;4.852;2022-08-21T13:43:30;9.85;;;2.50;;
70838;SDS011;58464;52.298;4.852;2022-08-21T13:45:58;11.73;;;1.85;;
70838;SDS011;58464;52.298;4.852;2022-08-21T13:48:26;4.68;;;1.27;;
70838;SDS011;58464;52.298;4.852;2022-08-21T13:50:55;5.53;;;1.25;;
70838;SDS011;58464;52.298;4.852;2022-08-21T13:53:32;3.47;;;1.08;;
70838;SDS011;58464;52.298;4.852;2022-08-21T13:56:00;9.45;;;1.67;;
70838;SDS011;58464;52.298;4.852;2022-08-21T13:58:27;7.25;;;1.83;;
70838;SDS011;58464;52.298;4.852;2022-08-21T14:00:55;5.43;;;1.80;;
70838;SDS011;58464;52.298;4.852;2022-08-21T14:05:57;4.03;;;1.38;;
70838;SDS011;58464;52.298;4.852;2022-08-21T14:08:29;6.70;;;2.03;;
70838;SDS011;58464;52.298;4.852;2022-08-21T14:10:55;7.53;;;1.30;;
70838;SDS011;58464;52.298;4.852;2022-08-21T14:15:56;6.25;;;1.27;;
70838;SDS011;58464;52.298;4.852;2022-08-21T14:18:23;11.65;;;1.90;;
70838;SDS011;58464;52.298;4.852;2022-08-21T14:20:51;4.80;;;2.03;;
70838;SDS011;58464;52.298;4.852;2022-08-21T14:23:23;10.30;;;1.83;;
70838;SDS011;58464;52.298;4.852;2022-08-21T14:25:50;9.73;;;1.67;;
70838;SDS011;58464;52.298;4.852;2022-08-21T14:30:51;11.40;;;1.55;;
70838;SDS011;58464;52.298;4.852;2022-08-21T14:33:23;4.20;;;1.35;;
70838;SDS011;58464;52.298;4.852;2022-08-21T14:35:51;8.90;;;1.38;;
70838;SDS011;58464;52.298;4.852;2022-08-21T14:38:17;10.55;;;1.55;;
70838;SDS011;58464;52.298;4.852;2022-08-21T14:40:47;4.85;;;1.17;;
70838;SDS011;58464;52.298;4.852;2022-08-21T14:43:18;4.68;;;1.25;;
70838;SDS011;58464;52.298;4.852;2022-08-21T14:45:45;7.85;;;1.30;;
70838;SDS011;58464;52.298;4.852;2022-08-21T14:48:11;5.85;;;1.48;;
70838;SDS011;58464;52.298;4.852;2022-08-21T14:50:36;11.73;;;1.48;;
70838;SDS011;58464;52.298;4.852;2022-08-21T14:53:02;4.78;;;1.92;;
70838;SDS011;58464;52.298;4.852;2022-08-21T14:55:29;9.65;;;2.15;;
70838;SDS011;58464;52.298;4.852;2022-08-21T14:57:55;11.05;;;2.45;;
70838;SDS011;58464;52.298;4.852;2022-08-21T15:00:22;9.70;;;2.05;;
70838;SDS011;58464;52.298;4.852;2022-08-21T15:02:49;6.32;;;2.13;;
70838;SDS011;58464;52.298;4.852;2022-08-21T15:05:15;4.20;;;1.30;;
70838;SDS011;58464;52.298;4.852;2022-08-21T15:07:42;10.00;;;2.35;;
70838;SDS011;58464;52.298;4.852;2022-08-21T15:10:07;5.63;;;1.40;;
70838;SDS011;58464;52.298;4.852;2022-08-21T15:12:34;7.40;;;1.67;;
70838;SDS011;58464;52.298;4.852;2022-08-21T15:15:02;8.68;;;1.80;;
70838;SDS011;58464;52.298;4.852;2022-08-21T15:17:29;7.63;;;2.17;;
70838;SDS011;58464;52.298;4.852;2022-08-21T15:19:55;10.68;;;2.28;;
70838;SDS011;58464;52.298;4.852;2022-08-21T15:22:20;5.35;;;1.58;;
70838;SDS011;58464;52.298;4.852;2022-08-21T15:24:45;10.05;;;2.28;;
70838;SDS011;58464;52.298;4.852;2022-08-21T15:27:11;8.45;;;2.13;;
70838;SDS011;58464;52.298;4.852;2022-08-21T15:29:39;9.27;;;1.80;;
70838;SDS011;58464;52.298;4.852;2022-08-21T15:32:19;10.70;;;1.73;;
70838;SDS011;58464;52.298;4.852;2022-08-21T15:34:47;7.65;;;2.03;;
70838;SDS011;58464;52.298;4.852;2022-08-21T15:37:15;7.45;;;1.77;;
70838;SDS011;58464;52.298;4.852;2022-08-21T15:39:40;8.55;;;1.83;;
70838;SDS011;58464;52.298;4.852;2022-08-21T15:42:06;7.82;;;1.50;;
70838;SDS011;58464;52.298;4.852;2022-08-21T15:44:32;13.90;;;2.60;;
70838;SDS011;58464;52.298;4.852;2022-08-21T15:46:58;6.80;;;1.52;;
70838;SDS011;58464;52.298;4.852;2022-08-21T15:49:24;6.50;;;1.40;;
70838;SDS011;58464;52.298;4.852;2022-08-21T15:51:49;7.70;;;1.75;;
70838;SDS011;58464;52.298;4.852;2022-08-21T15:54:15;7.80;;;2.15;;
70838;SDS011;58464;52.298;4.852;2022-08-21T15:56:41;8.18;;;1.27;;
70838;SDS011;58464;52.298;4.852;2022-08-21T15:59:15;5.18;;;1.50;;
70838;SDS011;58464;52.298;4.852;2022-08-21T16:01:42;4.35;;;1.10;;
70838;SDS011;58464;52.298;4.852;2022-08-21T16:04:08;13.23;;;2.03;;
70838;SDS011;58464;52.298;4.852;2022-08-21T16:06:35;11.65;;;2.15;;
70838;SDS011;58464;52.298;4.852;2022-08-21T16:09:00;12.85;;;2.00;;
70838;SDS011;58464;52.298;4.852;2022-08-21T16:11:26;3.97;;;1.30;;